createdAt,value
2019-03-08T00:02:26.176Z,100215.10
2019-03-08T00:04:56.650Z,100216.20
2019-03-08T00:07:27.079Z,100215.95
2019-03-08T00:09:57.716Z,100205.64
2019-03-08T00:12:38.997Z,100206.16
2019-03-08T00:15:11.218Z,100213.27
2019-03-08T00:17:44.013Z,100224.19
2019-03-08T00:20:14.701Z,100212.45
2019-03-08T00:22:45.123Z,100206.20
2019-03-08T00:25:17.063Z,100195.88
2019-03-08T00:27:47.468Z,100193.30
2019-03-08T00:30:17.881Z,100184.91
2019-03-08T00:32:48.514Z,100190.97
2019-03-08T00:35:18.942Z,100189.97
2019-03-08T00:37:50.078Z,100183.72
2019-03-08T00:40:20.483Z,100188.34
2019-03-08T00:42:50.909Z,100193.44
2019-03-08T00:45:21.732Z,100180.85
2019-03-08T00:47:52.141Z,100175.48
2019-03-08T00:50:24.301Z,100169.16
2019-03-08T00:52:54.723Z,100169.91
2019-03-08T00:55:25.157Z,100170.97
2019-03-08T00:57:55.862Z,100172.04
2019-03-08T01:00:27.314Z,100172.29
2019-03-08T01:02:57.827Z,100172.07
2019-03-08T01:05:30.168Z,100174.88
2019-03-08T01:08:00.666Z,100168.63
2019-03-08T01:10:31.294Z,100163.72
2019-03-08T01:13:01.789Z,100166.14
2019-03-08T01:15:32.257Z,100163.15
2019-03-08T01:18:02.736Z,100162.52
2019-03-08T01:20:33.197Z,100156.79
2019-03-08T01:23:04.426Z,100155.41
2019-03-08T01:25:36.332Z,100154.77
2019-03-08T01:28:09.876Z,100150.61
2019-03-08T01:30:41.200Z,100147.48
2019-03-08T01:33:13.240Z,100134.58
2019-03-08T01:35:44.861Z,100125.34
2019-03-08T01:38:15.278Z,100132.91
2019-03-08T01:40:45.722Z,100115.07
2019-03-08T01:43:17.018Z,100121.54
2019-03-08T01:45:48.614Z,100122.14
2019-03-08T01:48:19.075Z,100117.88
2019-03-08T01:50:50.407Z,100117.06
2019-03-08T01:53:22.382Z,100112.08
2019-03-08T01:55:53.833Z,100114.71
2019-03-08T01:58:24.263Z,100112.25
2019-03-08T02:00:54.731Z,100108.94
2019-03-08T02:03:25.699Z,100111.71
2019-03-08T02:05:56.096Z,100098.56
2019-03-08T02:08:34.737Z,100097.63
2019-03-08T02:11:05.199Z,100089.91
2019-03-08T02:13:37.070Z,100095.47
2019-03-08T02:16:07.615Z,100092.17
2019-03-08T02:18:39.625Z,100105.50
2019-03-08T02:21:10.091Z,100112.98
2019-03-08T02:23:40.504Z,100117.78
2019-03-08T02:26:10.998Z,100123.62
2019-03-08T02:28:41.439Z,100135.89
2019-03-08T02:31:11.864Z,100147.97
2019-03-08T02:33:42.287Z,100148.54
2019-03-08T02:36:14.015Z,100143.55
2019-03-08T02:38:44.423Z,100139.95
2019-03-08T02:41:14.901Z,100135.69
2019-03-08T02:43:45.375Z,100125.27
2019-03-08T02:46:15.826Z,100118.63
2019-03-08T02:48:46.818Z,100115.47
2019-03-08T02:51:18.533Z,100112.28
2019-03-08T02:53:48.974Z,100103.56
2019-03-08T02:56:20.054Z,100096.98
2019-03-08T02:58:51.454Z,100104.77
2019-03-08T03:01:23.183Z,100100.94
2019-03-08T03:03:53.715Z,100105.41
2019-03-08T03:06:27.269Z,100106.03
2019-03-08T03:08:57.812Z,100094.99
2019-03-08T03:11:29.831Z,100102.89
2019-03-08T03:14:00.261Z,100084.23
2019-03-08T03:16:30.860Z,100099.18
2019-03-08T03:19:02.253Z,100090.80
2019-03-08T03:21:32.694Z,100087.48
2019-03-08T03:24:03.234Z,100085.08
2019-03-08T03:26:33.754Z,100081.48
2019-03-08T03:29:04.166Z,100091.44
2019-03-08T03:31:34.653Z,100093.96
2019-03-08T03:34:06.613Z,100090.75
2019-03-08T03:36:37.147Z,100086.17
2019-03-08T03:39:07.619Z,100077.11
2019-03-08T03:41:38.092Z,100065.72
2019-03-08T03:44:08.592Z,100063.70
2019-03-08T03:46:39.067Z,100065.13
2019-03-08T03:49:09.547Z,100061.53
2019-03-08T03:51:40.067Z,100069.20
2019-03-08T03:54:10.571Z,100069.70
2019-03-08T03:56:40.984Z,100054.39
2019-03-08T03:59:11.454Z,100051.88
2019-03-08T04:01:43.519Z,100051.45
2019-03-08T04:04:13.979Z,100051.84
2019-03-08T04:06:44.390Z,100054.01
2019-03-08T04:09:14.901Z,100050.55
2019-03-08T04:11:45.336Z,100056.44
2019-03-08T04:14:15.836Z,100053.30
2019-03-08T04:16:46.445Z,100064.23
2019-03-08T04:19:16.905Z,100062.30
2019-03-08T04:21:47.343Z,100070.79
2019-03-08T04:24:17.776Z,100055.47
2019-03-08T04:26:49.781Z,100060.04
2019-03-08T04:29:21.156Z,100056.17
2019-03-08T04:31:51.592Z,100050.78
2019-03-08T04:34:39.113Z,100056.20
2019-03-08T04:37:09.517Z,100041.44
2019-03-08T04:39:39.971Z,100039.42
2019-03-08T04:42:10.417Z,100042.67
2019-03-08T04:44:41.460Z,100042.78
2019-03-08T04:47:13.395Z,100050.80
2019-03-08T04:49:43.988Z,100039.17
2019-03-08T04:52:14.375Z,100037.98
2019-03-08T04:54:44.785Z,100040.64
2019-03-08T04:57:15.157Z,100044.22
2019-03-08T04:59:46.647Z,100044.34
2019-03-08T05:02:17.871Z,100045.66
2019-03-08T05:04:48.321Z,100035.82
2019-03-08T05:07:18.797Z,100044.34
2019-03-08T05:09:49.256Z,100034.30
2019-03-08T05:12:19.780Z,100026.14
2019-03-08T05:14:50.315Z,100022.64
2019-03-08T05:17:22.867Z,100021.94
2019-03-08T05:19:54.569Z,100018.20
2019-03-08T05:22:29.730Z,100017.36
2019-03-08T05:25:02.693Z,100019.41
2019-03-08T05:27:33.603Z,100030.09
2019-03-08T05:30:04.798Z,100037.50
2019-03-08T05:32:38.540Z,100025.18
2019-03-08T05:35:09.889Z,100025.39
2019-03-08T05:37:43.404Z,100024.92
2019-03-08T05:40:17.807Z,100037.04
2019-03-08T05:42:48.461Z,100023.72
2019-03-08T05:45:20.409Z,100021.06
2019-03-08T05:47:51.561Z,100030.52
2019-03-08T05:50:28.660Z,100019.38
2019-03-08T05:52:59.278Z,100028.73
2019-03-08T05:58:21.322Z,100033.63
2019-03-08T06:00:53.341Z,100032.56
2019-03-08T06:03:29.218Z,100031.80
2019-03-08T06:06:07.684Z,100035.28
2019-03-08T06:08:41.189Z,100034.77
2019-03-08T06:11:12.080Z,100036.66
2019-03-08T06:13:42.618Z,100041.36
2019-03-08T06:16:14.203Z,100055.91
2019-03-08T06:18:46.092Z,100036.91
2019-03-08T06:21:17.951Z,100044.58
2019-03-08T06:23:53.348Z,100039.55
2019-03-08T06:26:24.445Z,100045.89
2019-03-08T06:29:00.332Z,100035.27
2019-03-08T06:31:32.315Z,100025.64
2019-03-08T06:34:10.234Z,100019.92
2019-03-08T06:36:42.214Z,100018.47
2019-03-08T06:39:15.177Z,100028.91
2019-03-08T06:41:47.861Z,100026.70
2019-03-08T06:47:09.842Z,100012.42
2019-03-08T06:49:43.304Z,100018.22
2019-03-08T06:52:14.078Z,100016.86
2019-03-08T06:57:36.284Z,100023.66
2019-03-08T07:00:34.146Z,100029.45
2019-03-08T07:03:07.933Z,100021.73
2019-03-08T07:05:41.521Z,100025.81
2019-03-08T07:08:13.673Z,100024.50
2019-03-08T07:10:49.293Z,100015.56
2019-03-08T07:13:28.828Z,100013.26
2019-03-08T07:16:14.955Z,100005.45
2019-03-08T07:18:46.571Z,99991.50
2019-03-08T07:24:33.014Z,99980.83
2019-03-08T07:27:25.487Z,99973.84
2019-03-08T07:30:13.932Z,99959.48
2019-03-08T07:32:51.248Z,99952.47
2019-03-08T07:35:55.551Z,99951.67
2019-03-08T07:38:58.287Z,99951.23
2019-03-08T07:41:37.714Z,99951.03
2019-03-08T07:44:38.959Z,99954.00
2019-03-08T07:47:49.486Z,99957.99
2019-03-08T07:50:05.474Z,99956.70
2019-03-08T07:52:55.292Z,99951.86
2019-03-08T07:55:47.527Z,99960.86
2019-03-08T07:58:37.079Z,99949.95
2019-03-08T08:01:21.869Z,99945.09
2019-03-08T08:04:11.865Z,99944.64
2019-03-08T08:06:59.401Z,99954.56
2019-03-08T08:09:46.678Z,99960.13
2019-03-08T08:12:24.326Z,99966.92
2019-03-08T08:15:02.752Z,99985.37
2019-03-08T08:20:40.498Z,99987.25
2019-03-08T08:23:21.433Z,99988.94
2019-03-08T08:26:11.636Z,99999.63
2019-03-08T08:29:12.904Z,100006.28
2019-03-08T08:32:06.353Z,99989.78
2019-03-08T08:34:41.335Z,99987.39
2019-03-08T08:37:31.606Z,99987.42
2019-03-08T08:40:22.886Z,99988.16
2019-03-08T08:43:12.307Z,99982.06
2019-03-08T08:46:09.515Z,99973.20
2019-03-08T08:52:00.499Z,99970.83
2019-03-08T08:54:43.842Z,99970.44
2019-03-08T08:57:34.135Z,99954.98
2019-03-08T09:00:19.608Z,99955.59
2019-03-08T09:03:20.140Z,99940.77
2019-03-08T09:06:02.092Z,99944.47
2019-03-08T09:08:53.689Z,99929.62
2019-03-08T09:11:52.515Z,99933.11
2019-03-08T09:14:53.949Z,99921.44
2019-03-08T09:17:41.812Z,99917.09
2019-03-08T09:20:32.586Z,99920.45
2019-03-08T09:23:20.755Z,99929.44
2019-03-08T09:26:11.965Z,99912.88
2019-03-08T09:28:45.740Z,99912.13
2019-03-08T09:31:35.265Z,99903.33
2019-03-08T09:34:19.269Z,99908.52
2019-03-08T09:36:56.981Z,99913.95
2019-03-08T09:39:47.252Z,99907.52
2019-03-08T09:42:38.582Z,99908.52
2019-03-08T09:45:21.412Z,99896.80
2019-03-08T09:48:00.933Z,99907.98
2019-03-08T09:50:49.044Z,99907.81
2019-03-08T09:53:25.662Z,99910.13
2019-03-08T09:56:01.242Z,99895.36
2019-03-08T09:58:35.742Z,99890.95
2019-03-08T10:01:23.855Z,99895.14
2019-03-08T10:04:08.995Z,99890.19
2019-03-08T10:06:49.917Z,99899.36
2019-03-08T10:09:41.021Z,99887.61
2019-03-08T10:12:18.749Z,99890.23
2019-03-08T10:15:01.748Z,99875.49
2019-03-08T10:17:43.866Z,99889.74
2019-03-08T10:20:30.767Z,99885.42
2019-03-08T10:23:19.948Z,99880.00
2019-03-08T10:25:47.669Z,99882.80
2019-03-08T10:28:27.721Z,99871.84
2019-03-08T10:31:02.899Z,99877.81
2019-03-08T10:33:46.925Z,99875.08
2019-03-08T10:36:42.040Z,99867.02
2019-03-08T10:39:35.602Z,99861.56
2019-03-08T10:42:23.644Z,99862.36
2019-03-08T10:45:02.617Z,99856.55
2019-03-08T10:47:55.781Z,99842.34
2019-03-08T10:50:21.201Z,99857.63
2019-03-08T10:52:58.504Z,99845.62
2019-03-08T10:55:49.335Z,99850.35
2019-03-08T10:58:29.959Z,99844.21
2019-03-08T11:01:08.136Z,99848.97
2019-03-08T11:03:55.807Z,99830.42
2019-03-08T11:06:34.035Z,99835.70
2019-03-08T11:09:08.230Z,99828.14
2019-03-08T11:11:49.209Z,99824.13
2019-03-08T11:14:37.264Z,99819.50
2019-03-08T11:17:28.208Z,99819.39
2019-03-08T11:20:26.658Z,99826.22
2019-03-08T11:23:11.689Z,99808.73
2019-03-08T11:25:53.083Z,99808.58
2019-03-08T11:28:51.188Z,99811.47
2019-03-08T11:32:05.314Z,99801.75
2019-03-08T11:34:13.290Z,99817.39
2019-03-08T11:36:56.012Z,99816.13
2019-03-08T11:39:45.365Z,99803.41
2019-03-08T11:42:25.915Z,99827.04
2019-03-08T11:45:07.442Z,99816.05
2019-03-08T11:48:05.043Z,99821.87
2019-03-08T11:50:46.616Z,99816.40
2019-03-08T11:53:40.299Z,99808.19
2019-03-08T11:56:21.560Z,99812.97
2019-03-08T11:59:02.913Z,99826.21
2019-03-08T12:01:39.264Z,99814.37
2019-03-08T12:04:24.660Z,99830.14
2019-03-08T12:07:10.580Z,99816.85
2019-03-08T12:10:02.922Z,99813.43
2019-03-08T12:12:51.234Z,99808.76
2019-03-08T12:15:39.052Z,99810.61
2019-03-08T12:18:29.328Z,99804.80
2019-03-08T12:21:02.722Z,99801.41
2019-03-08T12:23:39.043Z,99790.94
2019-03-08T12:26:30.991Z,99785.68
2019-03-08T12:29:12.744Z,99788.70
2019-03-08T12:31:46.294Z,99796.03
2019-03-08T12:34:39.083Z,99786.61
2019-03-08T12:37:20.218Z,99781.54
2019-03-08T12:39:57.010Z,99788.91
2019-03-08T12:42:44.380Z,99782.84
2019-03-08T12:45:20.809Z,99789.57
2019-03-08T12:47:59.218Z,99774.94
2019-03-08T12:50:34.252Z,99766.71
2019-03-08T12:53:26.838Z,99764.28
2019-03-08T12:56:23.319Z,99748.36
2019-03-08T12:59:01.155Z,99750.57
2019-03-08T13:02:09.784Z,99753.19
2019-03-08T13:05:06.654Z,99745.80
2019-03-08T13:10:59.006Z,99749.96
2019-03-08T13:13:34.325Z,99738.76
2019-03-08T13:16:07.398Z,99746.97
2019-03-08T13:18:50.393Z,99743.06
2019-03-08T13:22:10.760Z,99756.73
2019-03-08T13:24:06.854Z,99748.73
2019-03-08T13:26:52.142Z,99730.11
2019-03-08T13:29:25.202Z,99742.75
2019-03-08T13:31:52.939Z,99739.34
2019-03-08T13:34:24.842Z,99749.31
2019-03-08T13:36:59.977Z,99733.92
2019-03-08T13:39:45.703Z,99745.78
2019-03-08T13:42:44.694Z,99754.39
2019-03-08T13:45:16.787Z,99753.26
2019-03-08T13:49:55.455Z,99736.31
2019-03-08T13:50:50.745Z,99741.37
2019-03-08T13:53:21.873Z,99738.69
2019-03-08T13:56:04.126Z,99743.48
2019-03-08T14:02:27.114Z,99747.98
2019-03-08T14:05:12.078Z,99754.49
2019-03-08T14:09:56.169Z,99739.75
2019-03-08T14:10:42.581Z,99730.30
2019-03-08T14:13:15.922Z,99740.13
2019-03-08T14:15:46.539Z,99718.92
2019-03-08T14:18:21.382Z,99723.27
2019-03-08T14:20:52.395Z,99721.75
2019-03-08T14:23:22.866Z,99720.45
2019-03-08T14:25:53.615Z,99727.23
2019-03-08T14:28:25.288Z,99727.35
2019-03-08T14:31:13.957Z,99717.27
2019-03-08T14:33:44.677Z,99720.72
2019-03-08T14:36:15.226Z,99718.16
2019-03-08T14:39:08.011Z,99718.16
2019-03-08T14:41:40.940Z,99715.67
2019-03-08T14:44:13.333Z,99704.84
2019-03-08T14:46:45.506Z,99704.88
2019-03-08T16:44:36.591Z,99761.26
2019-03-08T20:50:19.728Z,99736.33
2019-03-08T20:52:50.385Z,99731.64
2019-03-08T20:55:20.804Z,99738.34
2019-03-08T20:57:53.754Z,99742.02
2019-03-08T21:00:28.607Z,99744.20
2019-03-08T21:03:02.290Z,99739.03
2019-03-08T21:05:38.820Z,99737.55
2019-03-08T21:08:09.423Z,99738.02
2019-03-08T21:10:41.663Z,99735.52
2019-03-08T21:13:18.311Z,99739.98
2019-03-08T21:15:55.534Z,99723.56
2019-03-08T21:18:25.477Z,99725.53
2019-03-08T21:20:56.203Z,99730.22
2019-03-08T21:23:26.835Z,99727.03
2019-03-08T21:25:58.448Z,99719.26
2019-03-08T21:28:29.021Z,99724.05
2019-03-08T21:33:51.544Z,99738.58
2019-03-08T21:36:21.772Z,99726.47
2019-03-08T21:38:52.651Z,99734.74
2019-03-08T21:41:24.023Z,99726.77
2019-03-08T21:43:54.604Z,99727.63
2019-03-08T21:46:25.096Z,99711.68
2019-03-08T21:48:55.539Z,99709.02
2019-03-08T21:51:26.115Z,99704.35
2019-03-08T21:54:03.220Z,99696.86
2019-03-08T21:56:33.750Z,99702.85
2019-03-08T21:59:24.730Z,99710.68
2019-03-08T22:01:47.997Z,99701.87
2019-03-08T22:04:30.359Z,99674.80
2019-03-08T22:07:00.567Z,99682.09
2019-03-08T22:09:43.459Z,99671.79
2019-03-08T22:12:26.928Z,99670.61
2019-03-08T22:15:00.365Z,99672.09
2019-03-08T22:17:52.454Z,99691.70
2019-03-08T22:20:32.030Z,99679.10
2019-03-08T22:23:05.780Z,99682.62
2019-03-08T22:25:37.898Z,99679.20
2019-03-08T22:28:14.346Z,99674.25
2019-03-08T22:30:51.888Z,99683.88
2019-03-08T22:33:24.188Z,99677.39
2019-03-08T22:35:57.101Z,99680.52
2019-03-08T22:38:27.573Z,99672.38
2019-03-08T22:40:58.013Z,99665.91
2019-03-08T22:43:28.498Z,99663.27
2019-03-08T22:46:00.178Z,99679.66
2019-03-08T22:48:30.628Z,99673.00
2019-03-08T22:51:02.351Z,99680.45
2019-03-08T22:53:34.447Z,99684.91
2019-03-08T22:56:10.717Z,99683.04
2019-03-08T22:58:43.605Z,99692.62
2019-03-08T23:01:14.762Z,99702.22
2019-03-08T23:03:45.249Z,99697.39
2019-03-08T23:06:16.797Z,99685.58
2019-03-08T23:08:47.241Z,99684.41
2019-03-08T23:11:17.767Z,99685.70
2019-03-08T23:13:48.231Z,99686.67
2019-03-08T23:16:18.625Z,99675.64
2019-03-08T23:18:49.072Z,99684.94
2019-03-08T23:21:19.520Z,99669.09
2019-03-08T23:26:42.415Z,99678.30
2019-03-08T23:29:17.523Z,99692.95
2019-03-08T23:32:00.628Z,99687.80
2019-03-08T23:34:31.571Z,99675.47
2019-03-08T23:37:01.919Z,99672.99
2019-03-08T23:39:32.401Z,99679.27
2019-03-08T23:42:02.869Z,99681.56
2019-03-08T23:44:33.297Z,99678.41
2019-03-08T23:47:04.647Z,99681.30
2019-03-08T23:49:35.011Z,99684.41
2019-03-08T23:52:21.439Z,99681.58
2019-03-08T23:54:51.898Z,99682.54
2019-03-08T23:57:25.059Z,99683.66
2019-03-08T23:59:55.542Z,99686.02
